Vancouver, Washington
Current Conditions -  °F | °C
As of 3:53 AM on Thursday 23 Oct 2014 (Local Time) from KVUO Reporting Station
Moderate Rain Moderate Rain  
Wind Chill: 13°   Ceiling: 4300
Heat Index: 13°   Visibility: 6mi
Dew Point: 11°   Wind: 5mph
Humidity: 86%   Direction: 150°SSE
Pressure: 29.78"   Gusts: NA
Location:  45.63°N, 122.67°W
Report Text: KVUO 231053Z AUTO 15004KT 6SM RA BR FEW009 OVC043 13/11 A2978 RMK AO2 RAB18 SLP083 P0003 T01280106
Loading
Personal Weather Stations






























Interactive Weather Map
Tropical Storm Tracking
New forecast layout! Learn more

10-Day Weather Forecast

Advertisements
Track Severe Weather on mobile